Time;durP1;ratioP1;P1;durP2;ratioP2;P2;SDS_P1;SDS_P2;PMS_P1;PMS_P2;Temp;Humidity;BMP_temperature;BMP_pressure;BME280_temperature;BME280_humidity;BME280_pressure;Samples;Min_cycle;Max_cycle;Signal;HPM_P1;HPM_P2
2022/04/24 00:01:07;;;;;;;0.40;0.30;;;;;;;9.65;70.07;100206.19;5052732;28;20999;-73
2022/04/24 00:03:34;;;;;;;0.40;0.30;;;;;;;9.70;70.07;100207.97;5052826;28;20468;-72
2022/04/24 00:06:00;;;;;;;0.40;0.30;;;;;;;9.73;70.00;100199.25;5052491;28;20442;-73
2022/04/24 00:08:27;;;;;;;0.40;0.30;;;;;;;9.64;70.66;100207.28;5052825;28;20446;-73
2022/04/24 00:10:53;;;;;;;0.40;0.30;;;;;;;9.65;70.10;100203.50;5055142;28;20446;-73
2022/04/24 00:13:20;;;;;;;0.40;0.30;;;;;;;9.65;70.79;100199.97;5056617;28;20446;-73
2022/04/24 00:15:46;;;;;;;0.40;0.30;;;;;;;9.65;70.25;100192.66;5056550;28;20496;-73
2022/04/24 00:18:14;;;;;;;0.40;0.30;;;;;;;9.57;69.13;100196.09;5056451;28;20453;-73
2022/04/24 00:20:41;;;;;;;0.40;0.30;;;;;;;9.50;69.06;100192.97;5056380;28;20445;-72
2022/04/24 00:23:07;;;;;;;0.40;0.30;;;;;;;9.45;69.26;100188.50;5056229;28;20472;-72
2022/04/24 00:25:33;;;;;;;0.40;0.30;;;;;;;9.40;69.34;100193.22;5056266;28;20445;-72
2022/04/24 00:28:02;;;;;;;0.40;0.30;;;;;;;9.34;69.84;100187.09;5055942;28;20952;-72
2022/04/24 00:30:28;;;;;;;0.40;0.30;;;;;;;9.28;70.77;100182.91;5056321;28;20449;-72
2022/04/24 00:32:55;;;;;;;0.40;0.30;;;;;;;9.27;71.56;100189.41;5055683;28;20516;-72
2022/04/24 00:35:22;;;;;;;0.40;0.30;;;;;;;9.26;71.78;100188.63;5056225;28;20441;-72
2022/04/24 00:37:49;;;;;;;0.40;0.20;;;;;;;9.28;72.50;100188.31;5056188;28;20438;-72
2022/04/24 00:40:15;;;;;;;0.40;0.30;;;;;;;9.29;72.86;100185.28;5056168;28;20465;-72
2022/04/24 00:42:42;;;;;;;0.40;0.30;;;;;;;9.25;73.02;100178.09;5055945;28;20520;-72
2022/04/24 00:45:09;;;;;;;0.40;0.30;;;;;;;9.25;72.96;100178.91;5056021;28;20430;-72
2022/04/24 00:47:36;;;;;;;0.40;0.30;;;;;;;9.18;73.61;100175.00;5055941;28;20453;-71
2022/04/24 00:50:03;;;;;;;0.40;0.30;;;;;;;9.13;73.93;100165.13;5055890;28;20442;-74
2022/04/24 00:52:31;;;;;;;0.40;0.30;;;;;;;9.16;74.24;100164.50;5055863;28;20457;-74
2022/04/24 00:54:57;;;;;;;0.40;0.30;;;;;;;9.19;73.92;100168.50;5055620;28;20943;-74
2022/04/24 00:57:24;;;;;;;0.40;0.30;;;;;;;9.18;74.00;100158.81;5055720;28;20442;-72
2022/04/24 00:59:50;;;;;;;0.40;0.27;;;;;;;9.21;74.49;100169.81;5055789;28;20446;-72
2022/04/24 01:02:17;;;;;;;0.40;0.30;;;;;;;9.18;73.96;100159.59;5055616;28;20481;-72
2022/04/24 01:04:43;;;;;;;0.40;0.30;;;;;;;9.15;74.26;100165.59;5055627;28;20449;-72
2022/04/24 01:07:10;;;;;;;0.40;0.30;;;;;;;9.06;74.73;100167.41;5055575;28;20471;-72
2022/04/24 01:09:38;;;;;;;0.50;0.50;;;;;;;9.03;74.09;100159.91;5055527;28;20453;-71
2022/04/24 01:12:06;;;;;;;0.40;0.30;;;;;;;9.03;73.90;100162.59;5055449;28;20982;-72
2022/04/24 01:14:33;;;;;;;0.40;0.30;;;;;;;8.97;73.21;100156.50;5055154;28;20802;-72
2022/04/24 01:17:01;;;;;;;0.50;0.50;;;;;;;8.90;73.07;100152.59;5055269;28;20986;-72
2022/04/24 01:19:29;;;;;;;0.40;0.30;;;;;;;8.83;72.88;100145.72;5055365;28;20443;-72
2022/04/24 01:21:57;;;;;;;0.40;0.30;;;;;;;8.84;74.79;100150.00;5054754;28;20481;-72
2022/04/24 01:24:26;;;;;;;0.40;0.30;;;;;;;8.80;74.26;100151.69;5055232;28;20484;-72
2022/04/24 01:26:53;;;;;;;0.40;0.27;;;;;;;8.74;74.47;100147.50;5055444;28;20433;-72
2022/04/24 01:29:21;;;;;;;0.40;0.30;;;;;;;8.67;75.90;100141.69;5055117;28;20442;-72
2022/04/24 01:31:48;;;;;;;0.40;0.30;;;;;;;8.69;76.66;100144.91;5054651;28;20485;-72
2022/04/24 01:34:15;;;;;;;0.40;0.30;;;;;;;8.64;77.32;100142.31;5055067;28;20438;-72
2022/04/24 01:36:42;;;;;;;0.40;0.30;;;;;;;8.65;77.45;100143.09;5054950;28;20449;-72
2022/04/24 01:39:10;;;;;;;0.40;0.30;;;;;;;8.68;77.52;100143.31;5054954;28;20446;-72
2022/04/24 01:41:36;;;;;;;0.40;0.20;;;;;;;8.67;77.71;100138.19;5056241;28;20858;-73
2022/04/24 01:44:04;;;;;;;0.40;0.30;;;;;;;8.62;77.88;100133.69;5054871;28;20856;-73
2022/04/24 01:46:30;;;;;;;0.40;0.30;;;;;;;8.62;77.42;100135.59;5054832;28;20873;-73
2022/04/24 01:48:56;;;;;;;0.40;0.30;;;;;;;8.60;77.85;100130.50;5054813;28;20442;-73
2022/04/24 01:51:23;;;;;;;0.40;0.30;;;;;;;8.52;78.10;100123.09;5054683;28;20466;-73
2022/04/24 01:53:50;;;;;;;0.40;0.20;;;;;;;8.55;77.93;100123.31;5054741;28;20481;-73
2022/04/24 01:56:17;;;;;;;0.40;0.30;;;;;;;8.56;78.02;100124.91;5054578;28;20446;-73
2022/04/24 01:58:44;;;;;;;0.40;0.30;;;;;;;8.46;78.63;100135.09;5054512;28;20457;-73
2022/04/24 02:01:11;;;;;;;0.40;0.30;;;;;;;8.44;78.56;100132.66;5054418;28;20450;-73
2022/04/24 02:03:37;;;;;;;0.40;0.30;;;;;;;8.41;78.20;100137.84;5054196;28;20878;-73
2022/04/24 02:06:06;;;;;;;0.40;0.30;;;;;;;8.40;77.36;100136.25;5054440;28;20499;-73
2022/04/24 02:08:41;;;;;;;0.40;0.30;;;;;;;8.29;75.81;100132.94;5054545;28;20434;-73
2022/04/24 02:11:08;;;;;;;0.40;0.30;;;;;;;8.22;75.83;100135.19;5054256;28;20462;-72
2022/04/24 02:13:37;;;;;;;0.40;0.30;;;;;;;8.18;76.37;100126.88;5054647;28;20481;-73
2022/04/24 02:16:04;;;;;;;0.40;0.30;;;;;;;8.12;76.75;100129.97;5053882;28;20932;-71
2022/04/24 02:18:30;;;;;;;0.50;0.50;;;;;;;8.08;77.64;100124.38;5054191;28;20450;-71
2022/04/24 02:20:57;;;;;;;0.40;0.30;;;;;;;8.04;77.36;100131.44;5053937;28;20434;-71
2022/04/24 02:23:23;;;;;;;0.40;0.30;;;;;;;8.05;78.86;100125.75;5053964;28;20493;-71
2022/04/24 02:25:50;;;;;;;0.40;0.30;;;;;;;8.10;79.33;100124.88;5054215;28;20438;-71
2022/04/24 02:28:16;;;;;;;0.40;0.30;;;;;;;8.09;79.52;100125.97;5054068;28;20449;-74
2022/04/24 02:30:44;;;;;;;0.40;0.30;;;;;;;8.15;79.39;100119.41;5054252;28;20446;-74
2022/04/24 02:33:10;;;;;;;0.40;0.30;;;;;;;8.16;79.18;100121.00;5052627;28;20475;-73
2022/04/24 02:35:37;;;;;;;0.40;0.30;;;;;;;8.12;79.24;100113.78;5053959;28;20464;-73
2022/04/24 02:38:03;;;;;;;0.40;0.30;;;;;;;8.07;79.36;100110.09;5053877;28;20450;-73
2022/04/24 02:40:30;;;;;;;0.40;0.30;;;;;;;8.08;79.92;100111.69;5053941;28;20487;-73
2022/04/24 02:42:56;;;;;;;0.40;0.30;;;;;;;8.09;79.90;100107.88;5053591;28;20983;-73
2022/04/24 02:45:23;;;;;;;0.40;0.30;;;;;;;8.05;79.79;100108.78;5053805;28;20454;-72
2022/04/24 02:47:51;;;;;;;3.43;3.23;;;;;;;8.05;80.01;100111.47;5053694;28;20438;-69
2022/04/24 02:50:18;;;;;;;0.40;0.30;;;;;;;8.01;79.79;100110.47;5053667;28;20442;-69
2022/04/24 02:52:49;;;;;;;0.40;0.30;;;;;;;8.06;79.65;100105.00;5053556;28;20469;-72
2022/04/24 02:55:16;;;;;;;0.40;0.30;;;;;;;8.09;79.61;100107.09;5053530;28;20468;-72
2022/04/24 02:57:43;;;;;;;0.40;0.30;;;;;;;8.06;79.28;100097.72;5053547;28;20470;-72
2022/04/24 03:00:11;;;;;;;0.40;0.30;;;;;;;7.96;78.33;100094.38;5053500;28;20448;-72
2022/04/24 03:02:45;;;;;;;0.40;0.30;;;;;;;7.87;77.91;100086.16;5052971;28;20486;-72
2022/04/24 03:05:15;;;;;;;0.40;0.30;;;;;;;7.89;77.95;100088.56;5053413;28;20473;-72
2022/04/24 03:07:42;;;;;;;0.40;0.30;;;;;;;7.90;78.72;100076.69;5053482;28;20430;-72
2022/04/24 03:10:09;;;;;;;0.40;0.30;;;;;;;7.92;79.17;100085.25;5053314;28;20439;-72
2022/04/24 03:12:36;;;;;;;0.40;0.30;;;;;;;7.89;78.15;100083.97;5053408;28;20490;-72
2022/04/24 03:15:03;;;;;;;0.40;0.30;;;;;;;7.79;78.91;100084.94;5053272;28;20507;-72
2022/04/24 03:17:31;;;;;;;0.40;0.30;;;;;;;7.83;78.83;100079.75;5053345;28;20533;-72
2022/04/24 03:19:57;;;;;;;0.40;0.30;;;;;;;7.79;79.65;100071.47;5052951;28;20936;-72
2022/04/24 03:22:25;;;;;;;0.40;0.30;;;;;;;7.78;80.82;100069.03;5053158;28;20492;-72
2022/04/24 03:24:51;;;;;;;0.40;0.30;;;;;;;7.78;80.84;100072.53;5053287;28;20446;-72
2022/04/24 03:27:18;;;;;;;0.40;0.30;;;;;;;7.77;80.71;100062.84;5053248;28;20443;-72
2022/04/24 03:29:44;;;;;;;0.40;0.30;;;;;;;7.76;80.89;100063.16;5053157;28;20441;-72
2022/04/24 03:32:11;;;;;;;0.40;0.30;;;;;;;7.74;81.26;100060.75;5052784;28;20987;-72
2022/04/24 03:34:37;;;;;;;0.40;0.30;;;;;;;7.70;81.52;100065.16;5053147;28;20439;-72
2022/04/24 03:37:05;;;;;;;0.50;0.43;;;;;;;7.67;82.02;100057.66;5052951;28;20450;-72
2022/04/24 03:39:32;;;;;;;0.40;0.30;;;;;;;7.68;82.28;100064.63;5053044;28;20492;-72
2022/04/24 03:41:59;;;;;;;0.40;0.30;;;;;;;7.71;81.89;100055.16;5052949;28;20516;-72
2022/04/24 03:44:26;;;;;;;0.40;0.30;;;;;;;7.64;82.25;100054.72;5054728;28;20442;-73
2022/04/24 03:46:53;;;;;;;0.40;0.30;;;;;;;7.61;82.20;100058.81;5057184;28;20516;-73
2022/04/24 03:49:19;;;;;;;0.40;0.30;;;;;;;7.64;82.26;100060.91;5056755;28;20974;-73
2022/04/24 03:51:45;;;;;;;0.40;0.30;;;;;;;7.63;82.11;100067.41;5056783;28;20466;-73
2022/04/24 03:54:12;;;;;;;0.40;0.30;;;;;;;7.61;81.11;100069.59;5056744;28;21015;-73
2022/04/24 03:56:40;;;;;;;0.40;0.30;;;;;;;7.68;81.31;100074.63;5056865;28;20438;-73
2022/04/24 03:59:06;;;;;;;0.40;0.30;;;;;;;7.69;81.80;100068.91;5056910;28;20567;-73
2022/04/24 04:01:32;;;;;;;0.40;0.30;;;;;;;7.65;81.58;100067.91;5057017;28;20466;-71
2022/04/24 04:03:59;;;;;;;0.40;0.30;;;;;;;7.67;81.54;100071.13;5056730;28;20493;-72
2022/04/24 04:06:25;;;;;;;0.40;0.30;;;;;;;7.57;81.11;100069.41;5056804;28;20511;-72
2022/04/24 04:08:52;;;;;;;0.40;0.30;;;;;;;7.62;81.57;100068.50;5056725;28;20816;-70
2022/04/24 04:11:18;;;;;;;0.40;0.30;;;;;;;7.60;81.25;100059.91;5056268;28;20991;-70
2022/04/24 04:13:46;;;;;;;0.40;0.30;;;;;;;7.53;82.46;100060.28;5056622;28;20442;-70
2022/04/24 04:16:12;;;;;;;0.40;0.30;;;;;;;7.53;83.12;100067.59;5056504;28;20446;-70
2022/04/24 04:18:39;;;;;;;0.40;0.30;;;;;;;7.52;83.29;100068.66;5056416;28;20442;-70
2022/04/24 04:21:05;;;;;;;0.40;0.30;;;;;;;7.57;83.38;100066.69;5056062;28;20491;-70
2022/04/24 04:23:32;;;;;;;0.40;0.30;;;;;;;7.60;83.70;100070.69;5056385;28;20829;-70
2022/04/24 04:25:58;;;;;;;0.40;0.30;;;;;;;7.63;83.64;100078.19;5056325;28;20438;-70
2022/04/24 04:28:25;;;;;;;0.40;0.30;;;;;;;7.66;83.76;100072.22;5056335;28;20452;-70
2022/04/24 04:30:52;;;;;;;0.40;0.30;;;;;;;7.74;83.36;100071.53;5056272;28;20511;-70
2022/04/24 04:33:19;;;;;;;0.40;0.30;;;;;;;7.78;83.19;100072.53;5055788;28;20864;-71
2022/04/24 04:35:45;;;;;;;0.40;0.30;;;;;;;7.75;83.20;100078.53;5056162;28;20453;-71
2022/04/24 04:38:14;;;;;;;0.40;0.30;;;;;;;7.77;83.64;100070.16;5055910;28;20481;-71
2022/04/24 04:40:40;;;;;;;0.40;0.30;;;;;;;7.82;83.59;100081.63;5056197;28;20508;-72
2022/04/24 04:43:06;;;;;;;0.40;0.30;;;;;;;7.83;83.38;100074.34;5055830;28;20543;-71
2022/04/24 04:45:33;;;;;;;0.40;0.30;;;;;;;7.86;82.86;100073.78;5056128;28;20446;-71
2022/04/24 04:48:01;;;;;;;0.40;0.30;;;;;;;7.86;82.60;100078.38;5055630;28;20936;-72
2022/04/24 04:50:27;;;;;;;0.40;0.30;;;;;;;7.87;82.73;100075.38;5055588;28;20446;-72
2022/04/24 04:52:54;;;;;;;0.40;0.30;;;;;;;7.83;82.32;100074.34;5055872;28;20458;-72
2022/04/24 04:55:20;;;;;;;0.40;0.40;;;;;;;7.74;81.36;100076.13;5054973;28;20453;-72
2022/04/24 04:57:47;;;;;;;0.40;0.30;;;;;;;7.75;81.96;100070.44;5055646;28;20857;-72
2022/04/24 05:00:15;;;;;;;0.40;0.30;;;;;;;7.80;82.79;100070.38;5055610;28;20450;-72
2022/04/24 05:02:41;;;;;;;0.40;0.30;;;;;;;7.86;82.38;100072.97;5055212;28;20509;-71
2022/04/24 05:05:10;;;;;;;0.40;0.30;;;;;;;7.90;82.03;100076.69;5055528;28;20442;-71
2022/04/24 05:07:37;;;;;;;0.40;0.30;;;;;;;7.96;82.63;100078.97;5055472;28;20443;-71
2022/04/24 05:10:05;;;;;;;0.40;0.30;;;;;;;8.05;82.77;100082.59;5055204;28;20442;-71
2022/04/24 05:12:32;;;;;;;0.40;0.30;;;;;;;8.13;83.14;100083.81;5055324;28;20458;-72
2022/04/24 05:15:00;;;;;;;0.40;0.20;;;;;;;8.21;82.95;100075.03;5055016;28;20853;-72
2022/04/24 05:17:28;;;;;;;0.40;0.30;;;;;;;8.23;83.17;100067.44;5055245;28;20500;-72
2022/04/24 05:19:54;;;;;;;0.40;0.30;;;;;;;8.31;82.48;100074.84;5054855;28;20474;-72
2022/04/24 05:22:22;;;;;;;0.40;0.30;;;;;;;8.33;82.33;100074.56;5054731;28;20979;-70
2022/04/24 05:24:48;;;;;;;0.40;0.30;;;;;;;8.45;82.08;100077.59;5055155;28;20445;-76
2022/04/24 05:27:15;;;;;;;0.40;0.30;;;;;;;8.53;81.77;100071.50;5054987;28;20876;-74
2022/04/24 05:29:41;;;;;;;0.40;0.30;;;;;;;8.64;81.23;100079.41;5054976;28;20445;-73
2022/04/24 05:32:10;;;;;;;0.40;0.30;;;;;;;8.72;80.96;100074.13;5054572;28;20482;-73
2022/04/24 05:34:36;;;;;;;0.40;0.30;;;;;;;8.78;80.58;100077.50;5054786;28;20510;-73
2022/04/24 05:37:03;;;;;;;0.40;0.30;;;;;;;8.78;80.39;100078.31;5054541;28;20500;-73
2022/04/24 05:39:31;;;;;;;0.40;0.30;;;;;;;8.92;80.39;100083.69;5054728;28;20446;-73
2022/04/24 05:41:58;;;;;;;0.40;0.30;;;;;;;8.98;79.67;100090.56;5054746;28;20532;-73
2022/04/24 05:44:24;;;;;;;0.40;0.30;;;;;;;9.05;78.17;100082.06;5054712;28;20490;-72
2022/04/24 05:46:51;;;;;;;0.40;0.30;;;;;;;9.02;77.80;100085.38;5054733;28;20446;-71
2022/04/24 05:49:17;;;;;;;0.40;0.27;;;;;;;9.11;78.09;100086.25;5054632;28;20447;-70
2022/04/24 05:51:44;;;;;;;0.40;0.30;;;;;;;9.21;78.37;100077.94;5054551;28;20823;-71
2022/04/24 05:54:11;;;;;;;0.40;0.20;;;;;;;9.33;76.93;100082.78;5054271;28;20954;-71
2022/04/24 05:56:39;;;;;;;0.40;0.30;;;;;;;9.44;76.79;100080.69;5054499;28;20817;-72
2022/04/24 05:59:06;;;;;;;0.40;0.27;;;;;;;9.42;76.96;100080.16;5054348;28;20947;-72
2022/04/24 06:01:32;;;;;;;0.40;0.30;;;;;;;9.51;76.69;100078.31;5053924;28;21094;-72
2022/04/24 06:03:59;;;;;;;0.40;0.30;;;;;;;9.66;76.98;100080.69;5054327;28;20888;-72
2022/04/24 06:06:25;;;;;;;0.40;0.30;;;;;;;9.79;76.77;100082.53;5053802;28;20974;-72
2022/04/24 06:08:52;;;;;;;0.40;0.30;;;;;;;9.92;76.31;100074.66;5054465;28;20445;-71
2022/04/24 06:11:19;;;;;;;0.40;0.30;;;;;;;10.01;75.98;100080.91;5054146;28;20460;-72
2022/04/24 06:13:47;;;;;;;0.40;0.30;;;;;;;10.10;75.18;100087.19;5054182;28;20524;-72
2022/04/24 06:16:14;;;;;;;0.40;0.30;;;;;;;10.15;74.56;100087.03;5054161;28;20447;-72
2022/04/24 06:18:40;;;;;;;0.40;0.30;;;;;;;10.20;74.12;100084.19;5054103;28;20816;-72
2022/04/24 06:21:07;;;;;;;0.40;0.30;;;;;;;10.08;73.53;100089.38;5053558;28;20936;-71
2022/04/24 06:23:34;;;;;;;0.40;0.20;;;;;;;10.18;73.42;100083.72;5053803;28;20485;-71
2022/04/24 06:26:00;;;;;;;0.40;0.20;;;;;;;10.22;73.49;100090.09;5053867;28;20446;-71
2022/04/24 06:28:27;;;;;;;0.40;0.30;;;;;;;10.30;73.81;100086.66;5053823;28;20449;-70
2022/04/24 06:30:54;;;;;;;0.40;0.30;;;;;;;10.44;73.06;100075.72;5053775;28;20434;-70
2022/04/24 06:33:21;;;;;;;0.40;0.30;;;;;;;10.43;72.13;100081.47;5053730;28;20455;-71
2022/04/24 06:35:47;;;;;;;0.40;0.30;;;;;;;10.48;72.31;100071.28;5053536;28;20450;-71
2022/04/24 06:38:14;;;;;;;0.40;0.30;;;;;;;10.54;71.58;100085.50;5053746;28;20492;-70
2022/04/24 06:40:40;;;;;;;0.50;0.50;;;;;;;10.46;71.08;100078.16;5053718;28;20453;-70
2022/04/24 06:43:08;;;;;;;0.40;0.30;;;;;;;10.48;71.22;100082.13;5053188;28;20482;-70
2022/04/24 06:45:36;;;;;;;0.40;0.30;;;;;;;10.50;71.54;100074.50;5053597;28;20438;-70
2022/04/24 06:48:06;;;;;;;0.40;0.30;;;;;;;10.56;71.04;100067.03;5053464;28;20434;-71
2022/04/24 06:50:34;;;;;;;0.40;0.30;;;;;;;10.53;71.70;100064.94;5053561;28;20544;-71
2022/04/24 06:53:02;;;;;;;0.50;0.47;;;;;;;10.53;72.60;100059.53;5053397;28;20490;-71
2022/04/24 06:55:29;;;;;;;0.40;0.30;;;;;;;10.67;71.67;100065.63;5053456;28;20446;-71
2022/04/24 06:57:56;;;;;;;0.40;0.30;;;;;;;10.68;71.54;100067.22;5053365;28;20450;-71
2022/04/24 07:00:24;;;;;;;0.40;0.30;;;;;;;10.66;71.13;100064.03;5053308;28;20446;-71
2022/04/24 07:02:50;;;;;;;0.40;0.30;;;;;;;10.77;70.93;100059.94;5053380;28;20458;-71
2022/04/24 07:05:20;;;;;;;0.40;0.30;;;;;;;10.79;71.42;100060.38;5052949;28;20496;-72
2022/04/24 07:07:47;;;;;;;0.40;0.30;;;;;;;10.90;71.58;100060.91;5053535;28;20454;-72
2022/04/24 07:10:13;;;;;;;0.40;0.30;;;;;;;10.95;71.04;100060.75;5053169;28;20438;-72
2022/04/24 07:12:47;;;;;;;0.40;0.30;;;;;;;10.92;69.93;100055.16;5053105;28;20469;-73
2022/04/24 07:15:14;;;;;;;0.40;0.30;;;;;;;10.99;70.34;100056.31;5053137;28;20446;-72
2022/04/24 07:17:41;;;;;;;0.40;0.30;;;;;;;11.01;69.52;100058.69;5053129;28;20450;-71
2022/04/24 07:20:09;;;;;;;0.40;0.30;;;;;;;11.07;68.86;100052.03;5052578;28;20505;-72
2022/04/24 07:22:44;;;;;;;0.40;0.30;;;;;;;11.22;69.67;100046.13;5052994;28;20473;-72
2022/04/24 07:25:12;;;;;;;0.40;0.30;;;;;;;11.36;69.49;100049.47;5052939;28;20461;-72
2022/04/24 07:27:39;;;;;;;0.40;0.30;;;;;;;11.37;67.92;100042.91;5052721;28;20932;-72
2022/04/24 07:30:13;;;;;;;0.40;0.30;;;;;;;11.38;67.84;100046.44;5052964;28;20445;-72
2022/04/24 07:32:40;;;;;;;0.40;0.30;;;;;;;11.47;66.83;100043.75;5052595;28;20938;-72
2022/04/24 07:35:10;;;;;;;0.40;0.30;;;;;;;11.47;66.41;100041.03;5052614;28;20808;-72
2022/04/24 07:37:36;;;;;;;0.40;0.30;;;;;;;11.55;66.52;100029.34;5052897;28;20446;-72
2022/04/24 07:40:06;;;;;;;0.40;0.30;;;;;;;11.64;67.17;100032.84;5052859;28;20442;-72
2022/04/24 07:42:32;;;;;;;0.40;0.30;;;;;;;11.75;67.09;100041.47;5052478;28;21006;-72
2022/04/24 07:44:59;;;;;;;0.40;0.30;;;;;;;11.88;66.87;100026.94;5052744;28;20518;-72
2022/04/24 07:47:25;;;;;;;0.40;0.30;;;;;;;11.98;64.35;100025.78;5054267;28;20454;-73
2022/04/24 07:49:52;;;;;;;0.40;0.30;;;;;;;12.07;64.82;100021.13;5052817;28;20446;-73
2022/04/24 07:52:19;;;;;;;0.40;0.30;;;;;;;12.14;65.09;100018.72;5052668;28;20469;-73
2022/04/24 07:54:45;;;;;;;0.40;0.30;;;;;;;12.15;63.39;100014.88;5052744;28;20544;-73
2022/04/24 07:57:13;;;;;;;0.40;0.30;;;;;;;12.25;63.20;100014.50;5052735;28;20442;-72
2022/04/24 07:59:40;;;;;;;0.40;0.30;;;;;;;12.24;63.05;99996.63;5052661;28;20453;-68
2022/04/24 08:02:06;;;;;;;0.40;0.30;;;;;;;12.41;63.15;100003.91;5052198;28;20979;-68
2022/04/24 08:04:32;;;;;;;0.40;0.30;;;;;;;12.57;63.10;100004.13;5052608;28;20478;-72
2022/04/24 08:06:59;;;;;;;0.40;0.30;;;;;;;12.59;62.36;100002.69;5052646;28;20461;-72
2022/04/24 08:09:25;;;;;;;0.40;0.30;;;;;;;12.61;62.70;100000.41;5052537;28;20437;-73
2022/04/24 08:11:52;;;;;;;0.40;0.30;;;;;;;12.76;61.18;100007.22;5052189;28;20987;-74
2022/04/24 08:14:20;;;;;;;0.40;0.30;;;;;;;12.99;62.04;100001.47;5052753;28;20438;-73
2022/04/24 08:16:47;;;;;;;0.40;0.30;;;;;;;13.18;61.33;99998.25;5052912;28;20446;-74
2022/04/24 08:19:13;;;;;;;0.40;0.30;;;;;;;13.18;61.00;99992.81;5052507;28;20450;-72
2022/04/24 08:21:40;;;;;;;0.40;0.30;;;;;;;13.20;59.96;100004.19;5052172;28;20975;-75
2022/04/24 08:24:06;;;;;;;0.40;0.30;;;;;;;13.34;59.99;99994.63;5052416;28;20493;-75
2022/04/24 08:26:33;;;;;;;0.40;0.30;;;;;;;13.51;59.09;99995.63;5052516;28;20445;-71
2022/04/24 08:28:59;;;;;;;0.40;0.30;;;;;;;13.69;58.08;99998.97;5052424;28;20462;-71
2022/04/24 08:31:27;;;;;;;0.40;0.30;;;;;;;13.85;57.95;99997.94;5053709;28;20473;-71
2022/04/24 08:33:57;;;;;;;0.40;0.30;;;;;;;13.94;57.49;100003.31;5056240;28;20472;-70
2022/04/24 08:36:24;;;;;;;0.40;0.30;;;;;;;14.02;56.73;100001.63;5056089;28;20446;-71
2022/04/24 08:38:50;;;;;;;0.40;0.27;;;;;;;14.05;56.64;99990.06;5055979;28;20446;-70
2022/04/24 08:41:21;;;;;;;2.40;2.20;;;;;;;14.20;56.81;99994.81;5055898;28;20488;-71
2022/04/24 08:43:48;;;;;;;0.40;0.30;;;;;;;14.26;55.79;99988.03;5055900;28;20465;-71
2022/04/24 08:46:14;;;;;;;0.40;0.30;;;;;;;14.25;54.84;99996.53;5055858;28;20488;-71
2022/04/24 08:48:43;;;;;;;0.40;0.30;;;;;;;14.18;54.25;99993.59;5055784;28;20442;-71
2022/04/24 08:51:11;;;;;;;0.40;0.20;;;;;;;14.11;56.23;99984.03;5055415;28;20951;-69
2022/04/24 08:53:39;;;;;;;0.40;0.20;;;;;;;14.20;56.78;99997.53;5055707;28;20435;-71
2022/04/24 08:56:06;;;;;;;0.40;0.30;;;;;;;14.41;55.67;99991.22;5055687;28;20438;-71
2022/04/24 08:58:32;;;;;;;0.40;0.30;;;;;;;14.72;55.00;99985.97;5055328;28;20947;-71
2022/04/24 09:00:59;;;;;;;0.40;0.30;;;;;;;15.01;55.28;99987.63;5055483;28;20476;-70
2022/04/24 09:03:26;;;;;;;0.40;0.30;;;;;;;15.10;54.31;99992.94;5055329;28;20446;-71
2022/04/24 09:05:53;;;;;;;0.40;0.30;;;;;;;15.13;54.48;99986.78;5055463;28;20438;-71
2022/04/24 09:08:24;;;;;;;0.40;0.30;;;;;;;15.00;52.49;99982.50;5055541;28;20457;-71
2022/04/24 09:10:51;;;;;;;0.40;0.30;;;;;;;15.07;52.48;99983.50;5055072;28;20958;-71
2022/04/24 09:13:28;;;;;;;0.40;0.30;;;;;;;15.18;54.15;99988.47;5055318;28;20454;-70
2022/04/24 09:15:56;;;;;;;0.63;0.63;;;;;;;15.28;52.81;99982.53;5055239;28;20497;-71
2022/04/24 09:18:22;;;;;;;0.40;0.30;;;;;;;15.38;52.04;99987.50;5055092;28;20457;-71
2022/04/24 09:20:56;;;;;;;0.40;0.30;;;;;;;15.49;51.66;99990.50;5055316;28;20450;-70
2022/04/24 09:23:25;;;;;;;0.40;0.20;;;;;;;15.50;52.08;99990.16;5055146;28;20473;-71
2022/04/24 09:25:52;;;;;;;0.40;0.30;;;;;;;15.52;50.70;99996.06;5055150;28;20446;-70
2022/04/24 09:28:18;;;;;;;0.40;0.30;;;;;;;15.59;52.83;99990.00;5054897;28;20959;-71
2022/04/24 09:30:51;;;;;;;0.40;0.30;;;;;;;15.67;51.57;99991.81;5055156;28;20525;-71
2022/04/24 09:33:17;;;;;;;0.40;0.30;;;;;;;15.78;52.54;99987.44;5054867;28;20474;-72
2022/04/24 09:35:43;;;;;;;0.40;0.30;;;;;;;15.86;52.32;99989.19;5054940;28;20461;-71
2022/04/24 09:38:13;;;;;;;0.40;0.30;;;;;;;15.97;52.40;99984.00;5054582;28;20957;-69
2022/04/24 09:40:45;;;;;;;0.40;0.20;;;;;;;15.96;50.16;99992.56;5054920;28;20959;-72
2022/04/24 09:43:12;;;;;;;0.40;0.30;;;;;;;16.00;50.81;99979.78;5054357;28;20462;-70
2022/04/24 09:45:40;;;;;;;0.40;0.30;;;;;;;16.02;51.53;99977.47;5054818;28;20482;-72
2022/04/24 09:48:14;;;;;;;0.40;0.30;;;;;;;16.15;51.55;99985.22;5054433;28;20928;-70
2022/04/24 09:50:41;;;;;;;0.40;0.30;;;;;;;16.03;49.86;99984.56;5054355;28;20435;-70
2022/04/24 09:53:09;;;;;;;0.40;0.30;;;;;;;16.02;50.95;99975.53;5054225;28;20999;-70
2022/04/24 09:55:39;;;;;;;0.40;0.30;;;;;;;16.05;50.92;99972.09;5054432;28;20443;-71
2022/04/24 09:58:07;;;;;;;0.40;0.30;;;;;;;15.98;51.07;99973.84;5054486;28;20896;-71
2022/04/24 10:00:34;;;;;;;0.40;0.30;;;;;;;16.13;51.63;99979.34;5053934;28;20943;-71
2022/04/24 10:03:01;;;;;;;0.40;0.30;;;;;;;16.31;51.10;99982.50;5054059;28;20983;-71
2022/04/24 10:05:30;;;;;;;0.40;0.30;;;;;;;16.48;50.54;99986.00;5054293;28;20478;-71
2022/04/24 10:07:57;;;;;;;0.40;0.20;;;;;;;16.60;50.45;99978.50;5054289;28;20491;-70
2022/04/24 10:10:23;;;;;;;0.40;0.20;;;;;;;16.62;51.39;99969.94;5053926;28;20854;-71
2022/04/24 10:12:54;;;;;;;0.40;0.30;;;;;;;16.71;50.24;99984.19;5054092;28;20462;-70
2022/04/24 10:15:22;;;;;;;0.40;0.30;;;;;;;16.84;50.49;99982.94;5053919;28;20931;-71
2022/04/24 10:18:17;;;;;;;0.40;0.30;;;;;;;16.78;47.70;99981.66;5054174;28;20485;-69
2022/04/24 10:20:53;;;;;;;0.40;0.30;;;;;;;16.88;48.67;99986.56;5054073;28;20426;-71
2022/04/24 10:23:28;;;;;;;0.40;0.30;;;;;;;17.06;48.80;99975.97;5054290;28;20525;-73
2022/04/24 10:25:55;;;;;;;0.40;0.30;;;;;;;17.23;49.68;99971.25;5053868;28;20469;-71
2022/04/24 10:28:23;;;;;;;0.40;0.20;;;;;;;17.31;47.65;99979.22;5053870;28;20439;-73
2022/04/24 10:30:59;;;;;;;0.40;0.30;;;;;;;17.47;47.59;99970.91;5053813;28;20453;-71
2022/04/24 10:33:28;;;;;;;0.40;0.30;;;;;;;17.64;47.81;99970.44;5053732;28;20454;-71
2022/04/24 10:35:59;;;;;;;0.40;0.30;;;;;;;17.75;47.07;99976.16;5053743;28;20481;-72
2022/04/24 10:38:28;;;;;;;0.40;0.30;;;;;;;17.93;47.95;99970.19;5053796;28;20422;-72
2022/04/24 10:41:03;;;;;;;0.40;0.20;;;;;;;18.24;45.83;99978.16;5053390;28;20484;-72
2022/04/24 10:43:39;;;;;;;0.40;0.30;;;;;;;18.58;47.12;99981.00;5053343;28;20430;-72
2022/04/24 10:46:17;;;;;;;0.40;0.30;;;;;;;18.76;44.67;99975.81;5053764;28;20481;-72
2022/04/24 10:48:43;;;;;;;0.40;0.30;;;;;;;18.61;44.08;99981.06;5053599;28;20434;-71
2022/04/24 10:51:10;;;;;;;0.40;0.30;;;;;;;18.46;43.54;99970.25;5053495;28;20454;-72
2022/04/24 10:53:49;;;;;;;0.40;0.37;;;;;;;18.31;44.32;99970.03;5052682;28;20438;-71
2022/04/24 10:56:15;;;;;;;0.40;0.30;;;;;;;18.13;45.31;99969.75;5053486;28;20517;-69
2022/04/24 10:58:43;;;;;;;0.40;0.30;;;;;;;18.12;45.25;99972.88;5053391;28;20450;-71
2022/04/24 11:01:12;;;;;;;0.40;0.30;;;;;;;18.06;45.20;99969.66;5053265;28;20446;-71
2022/04/24 11:03:41;;;;;;;0.40;0.20;;;;;;;18.07;45.18;99967.69;5052983;28;21001;-71
2022/04/24 11:06:18;;;;;;;0.40;0.30;;;;;;;17.94;45.79;99964.34;5053108;28;20580;-70
2022/04/24 11:08:44;;;;;;;0.40;0.20;;;;;;;18.02;46.54;99974.28;5053141;28;20800;-71
2022/04/24 11:11:14;;;;;;;0.40;0.30;;;;;;;18.11;46.70;99972.09;5052764;28;20985;-71
2022/04/24 11:13:41;;;;;;;0.40;0.30;;;;;;;18.26;45.19;99961.34;5053320;28;20956;-71
2022/04/24 11:16:09;;;;;;;0.40;0.27;;;;;;;18.53;45.68;99962.13;5053470;28;20438;-71
2022/04/24 11:18:36;;;;;;;0.40;0.30;;;;;;;19.00;44.70;99963.59;5053202;28;20451;-70
2022/04/24 11:21:07;;;;;;;0.40;0.20;;;;;;;19.19;43.14;99963.41;5053099;28;20439;-71
2022/04/24 11:23:36;;;;;;;0.40;0.20;;;;;;;18.98;43.32;99965.91;5053189;28;20437;-70
2022/04/24 11:26:05;;;;;;;0.40;0.30;;;;;;;18.98;43.24;99971.38;5053069;28;20509;-70
2022/04/24 11:28:39;;;;;;;0.40;0.30;;;;;;;18.70;42.59;99961.63;5053042;28;20458;-70
2022/04/24 11:31:13;;;;;;;0.40;0.20;;;;;;;18.43;43.36;99954.53;5053048;28;20446;-71
2022/04/24 11:33:51;;;;;;;0.40;0.30;;;;;;;18.28;45.12;99961.75;5052673;28;20889;-71